Time;durP1;ratioP1;P1;durP2;ratioP2;P2;SDS_P1;SDS_P2;PMS_P1;PMS_P2;Temp;Humidity;BMP_temperature;BMP_pressure;BME280_temperature;BME280_humidity;BME280_pressure;Samples;Min_cycle;Max_cycle;Signal;HPM_P1;HPM_P2
2022/09/28 00:01:15;;;;;;;0.80;0.65;;;17.90;71.20;;;;;;5016204;28;20221;-68
2022/09/28 00:03:42;;;;;;;1.95;0.77;;;17.90;71.20;;;;;;5033786;28;20266;-68
2022/09/28 00:06:12;;;;;;;1.17;0.60;;;17.90;71.20;;;;;;5032696;28;20701;-68
2022/09/28 00:08:38;;;;;;;0.77;0.57;;;17.90;71.20;;;;;;5031574;28;20183;-67
2022/09/28 00:11:07;;;;;;;2.50;0.60;;;17.90;71.20;;;;;;5017135;28;20218;-68
2022/09/28 00:13:34;;;;;;;1.40;0.47;;;17.90;71.30;;;;;;5049079;28;20213;-68
2022/09/28 00:16:07;;;;;;;0.60;0.50;;;17.90;71.20;;;;;;5032219;28;20207;-68
2022/09/28 00:18:34;;;;;;;0.70;0.60;;;17.90;71.20;;;;;;5048999;28;20186;-68
2022/09/28 00:21:14;;;;;;;1.38;0.68;;;17.90;71.20;;;;;;5032139;28;20211;-68
2022/09/28 00:26:28;;;;;;;1.35;0.60;;;17.90;71.20;;;;;;5033428;28;20179;-69
2022/09/28 00:28:57;;;;;;;1.30;0.68;;;17.90;71.30;;;;;;5032160;28;20179;-68
2022/09/28 00:31:25;;;;;;;0.65;0.60;;;17.90;71.20;;;;;;5032337;28;20211;-68
2022/09/28 00:33:55;;;;;;;1.52;0.50;;;17.90;71.20;;;;;;5015499;28;20190;-68
2022/09/28 00:36:27;;;;;;;0.50;0.50;;;17.90;71.20;;;;;;5015893;28;20306;-68
2022/09/28 00:38:57;;;;;;;0.60;0.50;;;17.90;71.30;;;;;;5048735;28;20286;-68
2022/09/28 00:41:26;;;;;;;0.85;0.55;;;17.90;71.30;;;;;;5015891;28;20211;-68
2022/09/28 00:44:13;;;;;;;0.60;0.50;;;17.90;71.30;;;;;;5031642;28;20661;-68
2022/09/28 00:46:40;;;;;;;0.65;0.60;;;17.90;71.20;;;;;;5015267;28;20244;-68
2022/09/28 00:49:14;;;;;;;0.47;0.47;;;17.90;71.20;;;;;;5015700;28;20183;-68
2022/09/28 00:51:44;;;;;;;0.68;0.68;;;17.90;71.20;;;;;;5015619;28;20210;-68
2022/09/28 00:54:13;;;;;;;0.60;0.50;;;17.90;71.20;;;;;;5015064;28;20187;-68
2022/09/28 00:56:45;;;;;;;0.90;0.60;;;17.90;71.20;;;;;;5015081;28;20211;-68
2022/09/28 00:59:11;;;;;;;1.02;0.55;;;17.90;71.20;;;;;;5015295;28;20251;-68
2022/09/28 01:01:37;;;;;;;0.65;0.50;;;17.90;71.20;;;;;;5031840;28;20750;-68
2022/09/28 01:04:03;;;;;;;1.27;0.52;;;17.90;71.30;;;;;;5015394;28;20171;-68
2022/09/28 01:06:34;;;;;;;0.57;0.50;;;17.90;71.20;;;;;;5031991;28;20189;-68
2022/09/28 01:09:12;;;;;;;0.50;0.50;;;17.90;71.20;;;;;;4999121;28;20195;-68
2022/09/28 01:11:38;;;;;;;1.20;0.55;;;17.90;71.20;;;;;;5015396;28;20211;-68
2022/09/28 01:14:13;;;;;;;0.60;0.60;;;17.90;71.30;;;;;;5015106;28;20270;-68
2022/09/28 01:17:01;;;;;;;2.28;0.82;;;17.90;71.30;;;;;;5047911;28;20219;-69
2022/09/28 01:19:45;;;;;;;0.70;0.60;;;17.90;71.30;;;;;;5048205;28;20175;-68
2022/09/28 01:23:16;;;;;;;1.10;0.70;;;17.90;71.20;;;;;;5047923;28;20203;-69
2022/09/28 01:26:22;;;;;;;0.47;0.47;;;17.90;71.30;;;;;;5047702;28;20198;-68
2022/09/28 01:28:55;;;;;;;0.70;0.68;;;17.90;71.30;;;;;;5015101;28;20187;-68
2022/09/28 01:31:30;;;;;;;0.70;0.50;;;17.90;71.30;;;;;;5015052;28;20679;-68
2022/09/28 01:34:21;;;;;;;0.60;0.60;;;17.90;71.20;;;;;;4998250;28;20721;-68
2022/09/28 01:36:53;;;;;;;0.65;0.65;;;17.90;71.30;;;;;;5047613;28;20239;-68
2022/09/28 01:39:45;;;;;;;1.20;0.40;;;17.90;71.30;;;;;;5015140;28;20179;-68
2022/09/28 01:42:23;;;;;;;1.25;0.93;;;17.90;71.30;;;;;;5031040;28;20210;-68
2022/09/28 01:44:53;;;;;;;0.57;0.57;;;17.90;71.30;;;;;;5014444;28;20203;-68
2022/09/28 01:47:23;;;;;;;1.15;0.60;;;17.90;71.30;;;;;;5014632;28;20225;-68
2022/09/28 01:50:03;;;;;;;1.08;0.60;;;17.90;71.30;;;;;;5014597;28;20187;-68
2022/09/28 01:52:59;;;;;;;0.75;0.57;;;17.90;71.30;;;;;;5014751;28;20203;-68
2022/09/28 01:55:31;;;;;;;0.68;0.68;;;17.90;71.30;;;;;;5008104;28;20258;-68
2022/09/28 01:58:21;;;;;;;0.40;0.40;;;17.90;71.30;;;;;;5014433;28;20180;-68
2022/09/28 02:00:58;;;;;;;0.50;0.45;;;17.90;71.30;;;;;;5015190;28;20207;-67
2022/09/28 02:03:36;;;;;;;0.60;0.43;;;17.90;71.30;;;;;;4998117;28;20634;-68
2022/09/28 02:06:13;;;;;;;0.75;0.50;;;17.90;71.30;;;;;;5014597;28;20185;-69
2022/09/28 02:08:52;;;;;;;0.52;0.50;;;17.90;71.30;;;;;;5014750;28;20273;-68
2022/09/28 02:11:21;;;;;;;0.65;0.45;;;17.90;71.30;;;;;;5014457;28;20207;-68
2022/09/28 02:14:03;;;;;;;1.30;0.50;;;17.90;71.30;;;;;;5014200;28;20183;-68
2022/09/28 02:16:42;;;;;;;0.95;0.65;;;17.90;72.10;;;;;;5030860;28;20243;-67
2022/09/28 02:19:25;;;;;;;0.95;0.55;;;17.80;71.10;;;;;;4998338;28;20179;-68
2022/09/28 02:22:36;;;;;;;0.40;0.40;;;17.90;71.30;;;;;;5047372;28;20221;-68
2022/09/28 02:25:09;;;;;;;1.00;0.60;;;17.80;71.20;;;;;;5047344;28;20179;-68
2022/09/28 02:27:58;;;;;;;0.80;0.40;;;17.90;71.30;;;;;;5014260;28;20179;-68
2022/09/28 02:30:28;;;;;;;1.85;0.85;;;17.80;71.10;;;;;;4998319;28;20565;-68
2022/09/28 02:33:02;;;;;;;0.77;0.50;;;17.90;71.30;;;;;;5014160;28;20203;-69
2022/09/28 02:35:28;;;;;;;0.50;0.50;;;17.90;71.40;;;;;;5045310;28;20222;-68
2022/09/28 02:37:55;;;;;;;0.93;0.68;;;17.90;71.30;;;;;;5030464;28;20186;-68
2022/09/28 02:40:28;;;;;;;1.00;0.80;;;17.80;71.20;;;;;;5030435;28;20262;-68
2022/09/28 02:43:57;;;;;;;0.43;0.40;;;17.80;71.20;;;;;;5014145;28;20270;-68
2022/09/28 02:46:57;;;;;;;0.50;0.47;;;17.80;71.20;;;;;;4998948;28;20217;-68
2022/09/28 02:49:33;;;;;;;0.70;0.60;;;17.80;71.20;;;;;;5017615;28;20213;-68
2022/09/28 02:52:29;;;;;;;0.80;0.70;;;17.80;71.30;;;;;;5001466;28;20209;-68
2022/09/28 02:55:32;;;;;;;1.23;0.52;;;17.90;71.40;;;;;;5000895;28;20240;-68
2022/09/28 02:58:46;;;;;;;0.73;0.47;;;17.90;71.30;;;;;;5000949;28;20190;-69
2022/09/28 03:01:51;;;;;;;0.77;0.50;;;17.80;71.20;;;;;;5000922;28;20276;-68
2022/09/28 03:04:57;;;;;;;0.57;0.57;;;17.80;71.20;;;;;;4990240;28;20206;-68
2022/09/28 03:07:35;;;;;;;0.90;0.47;;;17.80;71.20;;;;;;5034126;28;20194;-68
2022/09/28 03:10:36;;;;;;;0.50;0.40;;;17.80;71.20;;;;;;5017624;28;20208;-68
2022/09/28 03:13:04;;;;;;;0.52;0.40;;;17.80;71.10;;;;;;5000834;28;20670;-68
2022/09/28 03:15:35;;;;;;;0.50;0.50;;;17.80;71.20;;;;;;5033404;28;20222;-68
2022/09/28 03:18:01;;;;;;;0.80;0.47;;;17.90;71.40;;;;;;5033552;28;20218;-67
2022/09/28 03:20:29;;;;;;;3.22;0.60;;;17.80;71.20;;;;;;5016921;28;20716;-68
2022/09/28 03:22:55;;;;;;;0.73;0.65;;;17.90;71.30;;;;;;5000992;28;20282;-68
2022/09/28 03:25:21;;;;;;;0.82;0.63;;;17.80;71.20;;;;;;5033499;28;20199;-68
2022/09/28 03:27:47;;;;;;;0.93;0.68;;;17.80;71.20;;;;;;5016784;28;20712;-68
2022/09/28 03:30:14;;;;;;;0.40;0.40;;;17.80;71.20;;;;;;5017125;28;20184;-68
2022/09/28 03:32:43;;;;;;;0.68;0.40;;;17.80;71.20;;;;;;5016983;28;20215;-68
2022/09/28 03:35:10;;;;;;;0.70;0.70;;;17.80;71.20;;;;;;5016628;28;20236;-69
2022/09/28 03:37:36;;;;;;;0.55;0.50;;;17.80;71.20;;;;;;5016747;28;20179;-68
2022/09/28 03:40:04;;;;;;;0.73;0.60;;;17.80;71.20;;;;;;5033489;28;20194;-68
2022/09/28 03:42:35;;;;;;;0.77;0.60;;;17.80;71.20;;;;;;5000616;28;20191;-68
2022/09/28 03:45:01;;;;;;;0.57;0.57;;;17.80;71.20;;;;;;5032925;28;20206;-68
2022/09/28 03:47:27;;;;;;;2.85;0.60;;;17.80;71.20;;;;;;5033024;28;20568;-68
2022/09/28 03:49:53;;;;;;;0.60;0.40;;;17.80;71.20;;;;;;5016568;28;20183;-68
2022/09/28 03:52:18;;;;;;;0.65;0.50;;;17.80;72.00;;;;;;5032914;28;20199;-68
2022/09/28 03:54:44;;;;;;;0.88;0.63;;;17.80;71.20;;;;;;5016331;28;20218;-68
2022/09/28 03:57:10;;;;;;;1.27;0.40;;;17.80;71.20;;;;;;5016589;28;20298;-68
2022/09/28 03:59:36;;;;;;;1.05;0.40;;;17.80;71.20;;;;;;5032667;28;20172;-68
2022/09/28 04:02:04;;;;;;;0.73;0.45;;;17.80;71.20;;;;;;5015983;28;20261;-68
2022/09/28 04:04:31;;;;;;;0.40;0.40;;;17.80;71.20;;;;;;5015960;28;20183;-68
2022/09/28 04:06:57;;;;;;;0.73;0.40;;;17.80;71.20;;;;;;5025879;28;20183;-68
2022/09/28 04:09:24;;;;;;;0.40;0.40;;;17.80;71.20;;;;;;5032884;28;20191;-68
2022/09/28 04:11:50;;;;;;;0.63;0.55;;;17.80;71.20;;;;;;5032528;28;20211;-68
2022/09/28 04:14:16;;;;;;;0.52;0.52;;;17.80;71.20;;;;;;5015934;28;20724;-68
2022/09/28 04:16:42;;;;;;;0.68;0.50;;;17.80;71.20;;;;;;5032440;28;20207;-68
2022/09/28 04:19:12;;;;;;;0.32;0.32;;;17.80;71.20;;;;;;5016570;28;20203;-68
2022/09/28 04:21:56;;;;;;;0.40;0.40;;;17.80;71.20;;;;;;5033801;28;20211;-68
2022/09/28 04:24:22;;;;;;;0.73;0.38;;;17.80;71.10;;;;;;5032082;28;20194;-69
2022/09/28 04:26:48;;;;;;;0.30;0.30;;;17.80;71.20;;;;;;5015756;28;20191;-68
2022/09/28 04:29:14;;;;;;;0.68;0.50;;;17.80;71.20;;;;;;5032170;28;20195;-68
2022/09/28 04:31:50;;;;;;;0.50;0.50;;;17.80;71.20;;;;;;5016154;28;20283;-68
2022/09/28 04:34:21;;;;;;;0.57;0.50;;;17.80;71.20;;;;;;5015417;28;20190;-68
2022/09/28 04:36:48;;;;;;;1.48;0.50;;;17.80;71.20;;;;;;5015548;28;20219;-68
2022/09/28 04:39:17;;;;;;;0.40;0.40;;;17.80;71.20;;;;;;5032274;28;20178;-69
2022/09/28 04:41:47;;;;;;;0.60;0.40;;;17.80;71.10;;;;;;5016261;28;20297;-68
2022/09/28 04:44:13;;;;;;;2.25;0.60;;;17.80;71.20;;;;;;5031765;28;20179;-69
2022/09/28 04:46:39;;;;;;;0.40;0.40;;;17.80;71.20;;;;;;5031414;28;20678;-69
2022/09/28 04:49:28;;;;;;;0.73;0.43;;;17.80;71.20;;;;;;5004223;28;20198;-69
2022/09/28 04:52:14;;;;;;;0.30;0.30;;;17.80;71.20;;;;;;5029178;28;20207;-70
2022/09/28 04:54:40;;;;;;;0.73;0.50;;;17.80;71.20;;;;;;5015321;28;20187;-70
2022/09/28 04:57:06;;;;;;;0.30;0.30;;;17.80;71.20;;;;;;5031457;28;20207;-70
2022/09/28 04:59:32;;;;;;;0.30;0.30;;;17.80;71.20;;;;;;5015545;28;20183;-70
2022/09/28 05:01:59;;;;;;;0.40;0.40;;;17.80;71.20;;;;;;5014877;28;20229;-70
2022/09/28 05:04:27;;;;;;;0.63;0.50;;;17.80;71.20;;;;;;5031420;28;20320;-69
2022/09/28 05:07:02;;;;;;;0.60;0.50;;;17.80;71.20;;;;;;5030604;28;20201;-69
2022/09/28 05:09:28;;;;;;;0.88;0.40;;;17.80;71.20;;;;;;5031421;28;20191;-69
2022/09/28 05:11:53;;;;;;;1.13;0.50;;;17.80;71.30;;;;;;5014570;28;20203;-68
2022/09/28 05:14:21;;;;;;;1.38;0.47;;;17.80;71.30;;;;;;5015145;28;20191;-68
2022/09/28 05:16:48;;;;;;;0.80;0.50;;;17.80;71.30;;;;;;5030141;28;20225;-70
2022/09/28 05:19:16;;;;;;;1.05;0.52;;;17.80;71.30;;;;;;5031893;28;20199;-70
2022/09/28 05:21:44;;;;;;;1.27;0.68;;;17.80;71.40;;;;;;5014347;28;20199;-70
2022/09/28 05:24:11;;;;;;;0.73;0.40;;;17.80;71.30;;;;;;5028914;28;20171;-68
2022/09/28 05:26:38;;;;;;;0.47;0.47;;;17.80;71.40;;;;;;4994706;28;20207;-69
2022/09/28 05:29:06;;;;;;;0.50;0.50;;;17.80;71.40;;;;;;5010084;28;20194;-69
2022/09/28 05:31:46;;;;;;;0.60;0.60;;;17.80;71.40;;;;;;5010981;28;20231;-69
2022/09/28 05:34:30;;;;;;;0.50;0.40;;;17.80;71.40;;;;;;4980833;28;20192;-68
2022/09/28 05:36:56;;;;;;;1.20;0.60;;;17.80;71.40;;;;;;5010615;28;20219;-69
2022/09/28 05:39:22;;;;;;;1.50;0.60;;;17.80;71.40;;;;;;5010993;28;20198;-69
2022/09/28 05:41:48;;;;;;;1.20;0.40;;;17.80;71.40;;;;;;4978250;28;20215;-69
2022/09/28 05:44:14;;;;;;;0.75;0.40;;;17.80;71.40;;;;;;4978106;28;20192;-68
2022/09/28 05:46:40;;;;;;;0.77;0.50;;;17.80;71.50;;;;;;5027286;28;20190;-69
2022/09/28 05:49:08;;;;;;;0.40;0.40;;;17.80;71.40;;;;;;4994571;28;20196;-69
2022/09/28 05:51:33;;;;;;;0.60;0.50;;;17.80;71.50;;;;;;4978160;28;20637;-69
2022/09/28 05:53:59;;;;;;;1.05;0.50;;;17.80;71.50;;;;;;5010584;28;20219;-69
2022/09/28 05:56:29;;;;;;;0.57;0.40;;;17.80;71.50;;;;;;4978217;28;20315;-69
2022/09/28 05:58:57;;;;;;;0.77;0.55;;;17.80;71.50;;;;;;4988810;28;20254;-69
2022/09/28 06:01:25;;;;;;;1.05;0.60;;;17.80;71.50;;;;;;5010836;28;20699;-69
2022/09/28 06:03:52;;;;;;;0.60;0.47;;;17.80;71.60;;;;;;5010809;28;20188;-69
2022/09/28 06:06:18;;;;;;;1.00;0.57;;;17.80;72.30;;;;;;4994427;28;20192;-69
2022/09/28 06:08:47;;;;;;;1.52;0.55;;;17.80;71.50;;;;;;4994502;28;20188;-69
2022/09/28 06:11:34;;;;;;;0.95;0.52;;;17.80;71.50;;;;;;5011906;28;20235;-69
2022/09/28 06:14:13;;;;;;;0.93;0.52;;;17.80;71.60;;;;;;5026673;28;20191;-68
2022/09/28 06:16:41;;;;;;;0.65;0.45;;;17.80;71.60;;;;;;4994220;28;20614;-69
2022/09/28 06:19:08;;;;;;;0.60;0.55;;;17.80;71.70;;;;;;5010608;28;20184;-69
2022/09/28 06:21:41;;;;;;;0.68;0.52;;;17.80;71.70;;;;;;5011883;28;20199;-69
2022/09/28 06:24:07;;;;;;;0.52;0.50;;;17.80;71.70;;;;;;4981752;28;20237;-69
2022/09/28 06:26:35;;;;;;;0.80;0.80;;;17.80;71.60;;;;;;5014276;28;20191;-69
2022/09/28 06:29:02;;;;;;;0.50;0.50;;;17.80;71.70;;;;;;5000514;28;20195;-69
2022/09/28 06:31:28;;;;;;;0.82;0.57;;;17.80;71.70;;;;;;4997834;28;20230;-69
2022/09/28 06:33:55;;;;;;;1.15;0.55;;;17.80;72.50;;;;;;5014330;28;20207;-69
2022/09/28 06:36:21;;;;;;;1.73;0.77;;;17.80;71.70;;;;;;4981193;28;20752;-69
2022/09/28 06:38:48;;;;;;;0.40;0.40;;;17.80;71.70;;;;;;4997738;28;20652;-69
2022/09/28 06:41:14;;;;;;;1.08;0.60;;;17.80;71.70;;;;;;5030319;28;20226;-69
2022/09/28 06:43:42;;;;;;;0.55;0.30;;;17.80;71.70;;;;;;4981641;28;20195;-69
2022/09/28 06:46:30;;;;;;;1.70;0.70;;;17.80;71.70;;;;;;5000471;28;20210;-69
2022/09/28 06:49:14;;;;;;;1.77;0.40;;;17.80;71.70;;;;;;5015552;28;20303;-69
2022/09/28 06:51:58;;;;;;;1.17;0.50;;;17.80;71.80;;;;;;5000372;28;20315;-69
2022/09/28 06:54:43;;;;;;;0.70;0.70;;;17.80;71.80;;;;;;5029970;28;20188;-69
2022/09/28 06:57:27;;;;;;;1.77;0.60;;;17.70;71.60;;;;;;5011209;28;20258;-69
2022/09/28 06:59:53;;;;;;;1.20;0.70;;;17.80;71.80;;;;;;4981196;28;20180;-69
2022/09/28 07:02:19;;;;;;;1.52;0.63;;;17.80;71.80;;;;;;5014730;28;20588;-69
2022/09/28 07:05:20;;;;;;;1.60;1.02;;;17.80;71.90;;;;;;4989425;28;20566;-69
2022/09/28 07:08:20;;;;;;;1.15;0.60;;;17.80;71.80;;;;;;5009391;28;20562;-69
2022/09/28 07:11:06;;;;;;;0.68;0.57;;;17.80;71.80;;;;;;4999098;28;20200;-69
2022/09/28 07:13:43;;;;;;;1.40;0.50;;;17.80;71.90;;;;;;5014652;28;20176;-69
2022/09/28 07:16:11;;;;;;;1.05;0.70;;;17.80;71.80;;;;;;4980591;28;20276;-68
2022/09/28 07:18:36;;;;;;;0.88;0.68;;;17.80;71.80;;;;;;5013572;28;20184;-69
2022/09/28 07:21:06;;;;;;;0.65;0.50;;;17.80;71.80;;;;;;5013205;28;20212;-69
2022/09/28 07:23:32;;;;;;;1.25;0.60;;;17.80;71.80;;;;;;4996852;28;20648;-69
2022/09/28 07:26:27;;;;;;;0.93;0.50;;;17.80;71.80;;;;;;4948490;28;20254;-69
2022/09/28 07:29:09;;;;;;;0.80;0.50;;;17.80;71.80;;;;;;5043881;28;20191;-69
2022/09/28 07:31:58;;;;;;;0.47;0.40;;;17.80;71.80;;;;;;5003061;28;20209;-69
2022/09/28 07:34:42;;;;;;;0.73;0.70;;;17.80;71.80;;;;;;5048546;28;20186;-68
2022/09/28 07:37:12;;;;;;;0.73;0.45;;;17.80;71.80;;;;;;5000378;28;20294;-69
2022/09/28 07:42:28;;;;;;;1.10;0.60;;;17.80;71.90;;;;;;5032518;28;20206;-68
2022/09/28 07:44:55;;;;;;;1.40;0.70;;;17.80;71.90;;;;;;5016052;28;20573;-69
2022/09/28 07:47:25;;;;;;;0.88;0.70;;;17.80;71.80;;;;;;5016232;28;20179;-69
2022/09/28 07:50:11;;;;;;;1.63;0.65;;;17.80;71.90;;;;;;5032679;28;20191;-68
2022/09/28 07:52:52;;;;;;;1.17;0.55;;;17.90;72.00;;;;;;5015817;28;20198;-69
2022/09/28 07:55:28;;;;;;;1.17;0.57;;;17.80;71.90;;;;;;5000892;28;20321;-69
2022/09/28 07:58:21;;;;;;;0.45;0.45;;;17.80;71.90;;;;;;5003137;28;20179;-69
2022/09/28 08:01:09;;;;;;;1.00;0.40;;;17.80;71.90;;;;;;5016751;28;20214;-69
2022/09/28 08:03:36;;;;;;;0.50;0.50;;;17.80;71.90;;;;;;5012261;28;20183;-68
2022/09/28 08:06:09;;;;;;;1.38;0.60;;;17.80;71.90;;;;;;4995977;28;20195;-68
2022/09/28 08:08:42;;;;;;;1.65;0.50;;;17.80;71.90;;;;;;4996512;28;20180;-68
2022/09/28 08:11:16;;;;;;;1.92;0.60;;;17.80;71.90;;;;;;4995911;28;20730;-69
2022/09/28 08:13:57;;;;;;;0.60;0.60;;;17.80;72.00;;;;;;4996295;28;20267;-68
2022/09/28 08:16:44;;;;;;;0.90;0.50;;;17.80;72.00;;;;;;5012978;28;20377;-68
2022/09/28 08:19:14;;;;;;;0.68;0.50;;;17.80;72.00;;;;;;5012407;28;20187;-69
2022/09/28 08:21:45;;;;;;;0.40;0.40;;;17.80;71.90;;;;;;5011760;28;20210;-69
2022/09/28 08:24:14;;;;;;;1.08;0.60;;;17.80;72.00;;;;;;5012196;28;20263;-69
2022/09/28 08:26:41;;;;;;;0.55;0.50;;;17.80;72.00;;;;;;4995515;28;20184;-69
2022/09/28 08:29:08;;;;;;;0.45;0.43;;;17.80;72.00;;;;;;5012122;28;20266;-69
2022/09/28 08:31:47;;;;;;;0.68;0.43;;;17.80;72.00;;;;;;5015587;28;20199;-69
2022/09/28 08:34:21;;;;;;;0.60;0.50;;;17.80;72.00;;;;;;5016399;28;20187;-69
2022/09/28 08:37:11;;;;;;;0.70;0.52;;;17.80;72.10;;;;;;5031623;28;20230;-69
2022/09/28 08:39:55;;;;;;;0.93;0.40;;;17.80;72.00;;;;;;5033572;28;20264;-69
2022/09/28 08:42:41;;;;;;;1.27;0.40;;;17.80;72.00;;;;;;5031290;28;20195;-68
2022/09/28 08:45:30;;;;;;;0.40;0.40;;;17.80;72.00;;;;;;5044877;28;20194;-69
2022/09/28 08:48:43;;;;;;;0.40;0.40;;;17.80;72.00;;;;;;5031490;28;20175;-69
2022/09/28 08:51:37;;;;;;;0.77;0.60;;;17.80;72.00;;;;;;5031485;28;20233;-69
2022/09/28 08:54:47;;;;;;;1.92;0.82;;;17.80;72.00;;;;;;5031183;28;20189;-69
2022/09/28 08:57:30;;;;;;;0.80;0.80;;;17.80;72.10;;;;;;5047849;28;20245;-68
2022/09/28 09:00:00;;;;;;;0.40;0.40;;;17.80;72.00;;;;;;5031341;28;20178;-68
2022/09/28 09:02:38;;;;;;;1.33;0.68;;;17.80;72.00;;;;;;5031236;28;20269;-68
2022/09/28 09:05:18;;;;;;;1.05;0.40;;;17.80;72.00;;;;;;5047515;28;20725;-68
2022/09/28 09:08:27;;;;;;;1.15;0.50;;;17.80;72.10;;;;;;5031244;28;20341;-69
2022/09/28 09:11:17;;;;;;;0.65;0.50;;;17.80;72.00;;;;;;5014757;28;20217;-69
2022/09/28 09:13:55;;;;;;;0.70;0.50;;;17.80;72.10;;;;;;5031241;28;20179;-69
2022/09/28 09:16:44;;;;;;;0.43;0.43;;;17.80;72.00;;;;;;5030880;28;20294;-68
2022/09/28 09:20:01;;;;;;;0.63;0.60;;;17.80;72.00;;;;;;5009999;28;20227;-69
2022/09/28 09:22:54;;;;;;;1.85;0.68;;;17.80;72.00;;;;;;5031812;28;20218;-69
2022/09/28 09:25:49;;;;;;;0.30;0.30;;;17.80;72.10;;;;;;5047743;28;20234;-69
2022/09/28 09:28:42;;;;;;;0.70;0.70;;;17.80;72.10;;;;;;5031216;28;20230;-69
2022/09/28 09:31:41;;;;;;;0.60;0.60;;;17.80;72.10;;;;;;5047381;28;20223;-68
2022/09/28 09:34:44;;;;;;;0.60;0.57;;;17.80;72.10;;;;;;5047141;28;20190;-69
2022/09/28 09:38:21;;;;;;;1.35;0.57;;;17.80;72.00;;;;;;5030239;28;20225;-69
2022/09/28 09:41:35;;;;;;;0.50;0.50;;;17.80;72.00;;;;;;5009257;28;20211;-69
2022/09/28 09:44:38;;;;;;;0.68;0.50;;;17.80;72.00;;;;;;5011262;28;20250;-69
2022/09/28 09:47:39;;;;;;;0.80;0.70;;;17.80;72.00;;;;;;5012470;28;20214;-69
2022/09/28 09:50:43;;;;;;;0.50;0.50;;;17.80;72.00;;;;;;4994277;28;20187;-69
2022/09/28 09:53:28;;;;;;;0.77;0.60;;;17.80;72.00;;;;;;4994501;28;20188;-69
2022/09/28 09:56:06;;;;;;;0.50;0.50;;;17.80;72.00;;;;;;4997834;28;20315;-69
2022/09/28 09:59:23;;;;;;;0.80;0.50;;;17.80;72.00;;;;;;5002220;28;20266;-69
2022/09/28 10:02:27;;;;;;;0.57;0.40;;;17.80;71.90;;;;;;5031451;28;20211;-69
2022/09/28 10:05:11;;;;;;;1.38;0.75;;;17.80;71.90;;;;;;5034187;28;20262;-69
2022/09/28 10:08:01;;;;;;;0.47;0.47;;;17.80;71.90;;;;;;5034643;28;20252;-69
2022/09/28 10:10:33;;;;;;;0.50;0.50;;;17.80;71.90;;;;;;5001752;28;20213;-69
2022/09/28 10:13:08;;;;;;;0.75;0.63;;;17.80;71.90;;;;;;5034441;28;20186;-69
2022/09/28 10:15:35;;;;;;;0.73;0.43;;;17.80;71.90;;;;;;5001222;28;20756;-69
2022/09/28 10:18:18;;;;;;;0.70;0.68;;;17.80;71.80;;;;;;5032445;28;20163;-69
2022/09/28 10:21:03;;;;;;;0.57;0.57;;;17.80;71.90;;;;;;5034632;28;20269;-69
2022/09/28 10:24:01;;;;;;;1.05;0.70;;;17.80;71.80;;;;;;5020717;28;20252;-69
2022/09/28 10:26:45;;;;;;;1.33;0.60;;;17.80;71.80;;;;;;5034088;28;20675;-69
2022/09/28 10:29:22;;;;;;;0.50;0.50;;;17.80;71.80;;;;;;5017620;28;20187;-69
2022/09/28 10:31:51;;;;;;;0.47;0.47;;;17.80;71.80;;;;;;5034075;28;20210;-69
2022/09/28 10:34:29;;;;;;;0.50;0.50;;;17.80;71.80;;;;;;5014979;28;20210;-69
2022/09/28 10:37:08;;;;;;;0.82;0.57;;;17.80;71.80;;;;;;5033863;28;20215;-69
2022/09/28 10:39:54;;;;;;;1.77;0.55;;;17.80;71.80;;;;;;5033973;28;20191;-69
2022/09/28 10:42:28;;;;;;;0.63;0.60;;;17.80;71.90;;;;;;5033754;28;20206;-69
2022/09/28 10:45:14;;;;;;;0.90;0.70;;;17.80;71.90;;;;;;5033690;28;20190;-69
2022/09/28 10:47:43;;;;;;;1.02;0.65;;;17.80;71.80;;;;;;5050305;28;20221;-69
2022/09/28 10:50:22;;;;;;;0.60;0.50;;;17.80;71.90;;;;;;5033727;28;20202;-69
2022/09/28 10:52:51;;;;;;;0.68;0.40;;;17.80;71.80;;;;;;5017484;28;20193;-69
2022/09/28 10:55:35;;;;;;;0.98;0.85;;;17.80;71.80;;;;;;5033261;28;20624;-69
2022/09/28 10:58:32;;;;;;;1.08;0.70;;;17.80;71.80;;;;;;5032886;28;20191;-69
2022/09/28 11:01:11;;;;;;;0.63;0.50;;;17.80;71.80;;;;;;5033193;28;20286;-69
2022/09/28 11:04:03;;;;;;;0.93;0.68;;;17.80;71.70;;;;;;5033374;28;20256;-69
2022/09/28 11:06:36;;;;;;;0.57;0.50;;;17.80;71.70;;;;;;5049615;28;20213;-70
2022/09/28 11:09:17;;;;;;;0.43;0.35;;;17.80;71.70;;;;;;5032229;28;20233;-69
2022/09/28 11:11:43;;;;;;;0.70;0.70;;;17.80;71.60;;;;;;5050156;28;20695;-70
2022/09/28 11:14:35;;;;;;;0.73;0.50;;;17.90;71.80;;;;;;5016857;28;20184;-69
2022/09/28 11:17:39;;;;;;;0.50;0.50;;;17.80;71.60;;;;;;5032779;28;20627;-69
2022/09/28 11:20:24;;;;;;;0.63;0.63;;;17.90;71.70;;;;;;5016877;28;20183;-69
2022/09/28 11:22:59;;;;;;;0.80;0.60;;;17.80;71.60;;;;;;5032968;28;20666;-69
2022/09/28 11:25:30;;;;;;;0.60;0.60;;;17.80;71.60;;;;;;5033000;28;20191;-69
2022/09/28 11:28:00;;;;;;;1.20;0.80;;;17.90;71.70;;;;;;5032942;28;20210;-69
2022/09/28 11:30:53;;;;;;;1.10;0.70;;;17.90;71.80;;;;;;5016414;28;20179;-69
2022/09/28 11:33:45;;;;;;;0.93;0.50;;;17.90;71.70;;;;;;5028411;28;20226;-69
2022/09/28 11:37:18;;;;;;;0.68;0.68;;;17.90;71.70;;;;;;5034151;28;20258;-69
2022/09/28 11:40:15;;;;;;;1.00;0.80;;;17.90;71.70;;;;;;5049380;28;20559;-69
2022/09/28 11:43:06;;;;;;;0.90;0.80;;;17.90;71.70;;;;;;4997481;28;20248;-69
2022/09/28 11:45:39;;;;;;;0.65;0.65;;;17.90;71.70;;;;;;5037898;28;20176;-69
2022/09/28 11:48:21;;;;;;;0.80;0.65;;;17.90;71.70;;;;;;5012841;28;20188;-69
2022/09/28 11:51:02;;;;;;;0.98;0.65;;;17.90;71.70;;;;;;4996534;28;20294;-69
2022/09/28 11:53:35;;;;;;;0.50;0.50;;;17.90;71.70;;;;;;5032196;28;20183;-69
2022/09/28 11:56:28;;;;;;;0.95;0.52;;;17.90;71.70;;;;;;5032244;28;20215;-69
2022/09/28 11:59:26;;;;;;;0.40;0.40;;;17.90;71.70;;;;;;5032331;28;20187;-69
2022/09/28 12:02:09;;;;;;;0.65;0.65;;;17.90;71.60;;;;;;4986546;28;20301;-69
2022/09/28 12:05:02;;;;;;;0.60;0.60;;;17.90;71.70;;;;;;5015797;28;20194;-69
2022/09/28 12:07:43;;;;;;;0.60;0.60;;;17.90;71.70;;;;;;5016196;28;20187;-69
2022/09/28 12:10:55;;;;;;;1.20;0.70;;;17.90;71.70;;;;;;5032263;28;20241;-69
2022/09/28 12:13:46;;;;;;;0.63;0.55;;;17.90;71.70;;;;;;5029922;28;20187;-69
2022/09/28 12:16:20;;;;;;;0.88;0.60;;;17.80;71.50;;;;;;5015475;28;20220;-69
2022/09/28 12:19:01;;;;;;;1.05;0.80;;;17.90;71.70;;;;;;5031838;28;20191;-69
2022/09/28 12:21:47;;;;;;;0.98;0.45;;;17.90;71.70;;;;;;5015559;28;20207;-69
2022/09/28 12:24:44;;;;;;;0.52;0.40;;;17.90;71.70;;;;;;5031805;28;20272;-69
2022/09/28 12:27:37;;;;;;;1.25;0.80;;;17.90;71.60;;;;;;5011606;28;20266;-69
2022/09/28 12:30:18;;;;;;;0.80;0.77;;;17.90;71.60;;;;;;5015189;28;20290;-69
2022/09/28 12:33:04;;;;;;;0.50;0.50;;;17.90;71.60;;;;;;5031579;28;20211;-69
2022/09/28 12:36:13;;;;;;;1.48;0.70;;;17.90;71.70;;;;;;5028115;28;20202;-69
2022/09/28 12:39:00;;;;;;;1.17;0.70;;;17.90;71.60;;;;;;5012298;28;20258;-69
2022/09/28 12:42:01;;;;;;;1.80;0.57;;;17.90;71.60;;;;;;5011698;28;20211;-69
2022/09/28 12:44:45;;;;;;;0.50;0.50;;;17.90;71.70;;;;;;5011872;28;20218;-69
2022/09/28 12:47:42;;;;;;;0.60;0.60;;;17.90;71.60;;;;;;5011581;28;20237;-69
2022/09/28 12:50:29;;;;;;;0.60;0.50;;;17.90;71.60;;;;;;5011762;28;20754;-69
2022/09/28 12:53:18;;;;;;;1.08;0.60;;;17.90;71.70;;;;;;4979304;28;20242;-69
2022/09/28 12:55:56;;;;;;;0.70;0.65;;;17.90;71.60;;;;;;5011606;28;20215;-69
2022/09/28 12:58:47;;;;;;;0.70;0.60;;;17.90;71.60;;;;;;5011586;28;20196;-69
2022/09/28 13:02:04;;;;;;;1.80;0.63;;;17.90;71.70;;;;;;5011352;28;20226;-69
2022/09/28 13:04:43;;;;;;;1.27;0.65;;;17.90;71.70;;;;;;4968388;28;20196;-69
2022/09/28 13:07:39;;;;;;;0.70;0.70;;;17.90;71.70;;;;;;5011080;28;20180;-69
2022/09/28 13:10:32;;;;;;;0.82;0.70;;;17.80;71.60;;;;;;5011590;28;20196;-69
2022/09/28 13:13:31;;;;;;;0.63;0.63;;;17.80;71.60;;;;;;5011366;28;20267;-69
2022/09/28 13:16:16;;;;;;;1.20;0.88;;;17.80;71.50;;;;;;4978491;28;20227;-69
2022/09/28 13:19:12;;;;;;;0.63;0.60;;;17.80;71.60;;;;;;5027638;28;20192;-69
2022/09/28 13:22:14;;;;;;;0.70;0.60;;;17.90;71.80;;;;;;5011316;28;20203;-69
2022/09/28 13:24:43;;;;;;;0.60;0.60;;;17.80;71.60;;;;;;5027346;28;20207;-69
2022/09/28 13:27:18;;;;;;;1.35;1.00;;;17.80;71.60;;;;;;5011201;28;20196;-69
2022/09/28 13:29:48;;;;;;;1.38;0.80;;;17.80;71.60;;;;;;4995181;28;20198;-69
2022/09/28 13:32:16;;;;;;;1.25;0.80;;;17.80;71.60;;;;;;5010638;28;20339;-68
2022/09/28 13:34:49;;;;;;;0.65;0.63;;;17.80;71.60;;;;;;5011216;28;20655;-69
2022/09/28 13:37:15;;;;;;;0.80;0.57;;;17.80;71.50;;;;;;5011102;28;20212;-69
2022/09/28 13:39:44;;;;;;;0.82;0.82;;;17.80;71.50;;;;;;5014297;28;20179;-69
2022/09/28 13:42:46;;;;;;;0.90;0.80;;;17.80;71.60;;;;;;5027240;28;20245;-69
2022/09/28 13:45:20;;;;;;;1.48;0.80;;;17.80;71.50;;;;;;4993194;28;20229;-68
2022/09/28 13:48:11;;;;;;;1.38;0.85;;;17.80;71.50;;;;;;4994520;28;20191;-69
2022/09/28 13:50:53;;;;;;;1.13;0.88;;;17.80;71.50;;;;;;4994375;28;20195;-70
2022/09/28 13:53:47;;;;;;;0.80;0.80;;;17.80;71.50;;;;;;4994577;28;20188;-70
2022/09/28 13:56:25;;;;;;;0.80;0.73;;;17.80;71.50;;;;;;4994529;28;20216;-70